Richardton, North Dakota
Current Conditions -  °F | °C
As of 5:15 PM on Tuesday 25 Nov 2014 (Local Time) from KD57 Reporting Station
Haze Haze  
Wind Chill: 24°   Ceiling: 1200
Heat Index: 34°   Visibility: 2.5mi
Dew Point: 32°   Wind: 15mph
Humidity: 93%   Direction: 310°NW
Pressure: 29.74"   Gusts: 22mph
Location:  46.88°N, 102.32°W
Report Text: KD57 260015Z AUTO 31013G19KT 2 1/2SM BR SCT005 BKN012 OVC018 01/M00 A2974 RMK AO2 TSNO
Loading
Personal Weather Stations






























Interactive Weather Map New forecast layout! Learn more

10-Day Weather Forecast

Advertisements
Track Severe Weather on mobile